Aviation WX

[Source: ADDS]
METAR
KFKL 190224Z AUTO 00000KT 1/2SM UP FG BKN001 OVC050 00/M01 A3011 RMK AO2 P0000 FZRANO =
KFKL 190128Z 1901/1924 06003KT 1SM -SN BR SCT003 OVC010 TEMPO 1901/1903 1/2SM -SN FG BKN003 FM190400 32003KT 5SM BR OVC005 FM191600 VRB03KT 6SM -RA BR OVC008 FM192200 VRB03KT P6SM OVC010
TAF
KFKL 190128Z 1901/1924 06003KT 1SM -SN BR SCT003 OVC010 TEMPO 1901/1903 1/2SM -SN FG BKN003 FM190400 32003KT 5SM BR OVC005 FM191600 VRB03KT 6SM -RA BR OVC008 FM192200 VRB03KT P6SM OVC010 =

Clarion Airport T-Shirts

small